Tiempo atmosférico en la estación meteorológica de Cortes De La Frontera, Málaga (315 m.)



Fecha
DESCASC
Temp. máxima en grados centígrados (hora)
DESCASC
Temp. mínima en grados centígrados (hora)
DESCASC
Temp. media en grados centígrados
DESCASC
Racha de viento máxima en m/sg (hora)
DESCASC
Velocidad máxima media en intervalos de 10 minutos(hora)
DESCASC
Precipitaciones diarias en mm
DESCASC
Precipitaciones de 00:00 a 06:00 en mm
DESCASC
Precipitaciones de 06:00 a 12:00 en mm
DESCASC
Precipitaciones de 12:00 a 18:00 en mm
DESCASC
Precipitaciones de 18:00 a 24:00 en mm
DESCASC
10-11-2019 15.6 (15:00) 9.1 (00:00) 12.4 8.33 (14:10) 2.78 (12:10) 2 2 0 0 0
09-11-2019 17.5 (12:10) 7.2 (00:00) 12.3 8.33 (16:10) 2.5 (15:20) 0 0 0 0 0
08-11-2019 14.7 (13:40) 7.8 (00:00) 11.3 6.94 (11:50) 2.22 (12:10) 0 0 0 0 0
07-11-2019 16.4 (16:10) 9.8 (00:00) 13.1 7.5 (16:20) 2.22 (15:10) 7.6 0 0 7.6 0
06-11-2019 17.8 (13:20) 9 (00:00) 13.4 8.06 (12:40) 2.22 (11:50) 0 0 0 0 0
05-11-2019 17.2 (15:20) 12 (00:00) 14.6 9.17 (04:20) 2.78 (04:20) 2.8 2.8 0 0 0
04-11-2019 18.9 (15:00) 14.3 (00:00) 16.6 5.56 (15:10) 1.67 (12:40) 0.8 0.6 0 0 0.2
03-11-2019 19.4 (12:30) 14.9 (00:00) 17.1 6.11 (11:00) 1.39 (12:20) 12.8 11.8 1 0 0
02-11-2019 20.7 (14:10) 15.2 (00:00) 18 5 (20:40) 1.39 (14:20) 14.8 1.4 11 2 0.4
01-11-2019 24.7 (11:10) 17.8 (00:00) 21.3 7.78 (12:00) 2.78 (13:40) 0 0 0 0 0
31-10-2019 22.3 (16:00) 16.4 (05:50) 19.3 5 (21:30) 1.67 (10:50) 0 0 0 0 0
30-10-2019 26.7 (13:10) 13.8 (00:00) 20.3 6.39 (11:20) 1.67 (16:10) 0 0 0 0 0
29-10-2019 25.6 (12:20) 13.6 (00:00) 19.6 6.39 (12:50) 1.94 (14:50) 0 0 0 0 0
28-10-2019 23.8 (14:10) 11.3 (00:00) 17.5 5 (14:30) 1.94 (14:30) 0 0 0 0 0
27-10-2019 22.6 (12:50) 9.8 (00:00) 16.2 6.11 (13:10) 2.22 (13:50) 0 0 0 0 0
26-10-2019 24 (15:00) 8.2 (00:00) 16.1 5.56 (14:30) 1.94 (14:00) 0 0 0 0 0
25-10-2019 23.8 (14:50) 8.2 (00:00) 16 5.83 (15:30) 2.22 (15:20) 0 0 0 0 0
24-10-2019 19.8 (14:40) 9.5 (00:00) 14.6 6.67 (14:30) 2.22 (14:30) 0 0 0 0 0
23-10-2019 18 (15:50) 9.1 (00:00) 13.6 7.22 (15:40) 1.67 (12:50) 5.8 2.8 0.2 0.2 2.6
22-10-2019 19 (12:10) 7.4 (00:00) 13.2 5.83 (14:50) 1.67 (14:40) 0.6 0 0 0.6 0
21-10-2019 20.6 (13:00) 7.3 (00:00) 14 3.33 (13:00) 1.39 (15:10) 0 0 0 0 0
20-10-2019 18.8 (13:30) 10.5 (00:00) 14.6 7.22 (02:20) 1.67 (13:40) 1.8 1.8 0 0 0
19-10-2019 23.8 (13:30) 14.3 (00:00) 19 5.56 (18:10) 2.22 (13:30) 9.2 0 0 0.8 8.4
18-10-2019 27.5 (14:40) 13.6 (00:00) 20.6 6.94 (14:10) 2.5 (13:20) 0 0 0 0 0
17-10-2019 26.3 (15:00) 8.7 (00:00) 17.5 8.61 (20:40) 2.5 (20:40) 0 0 0 0 0
16-10-2019 24.1 (14:50) 6.5 (00:00) 15.3 4.72 (15:10) 1.94 (16:00) 0 0 0 0 0
15-10-2019 22.8 (13:50) 10 (00:00) 16.4 5 (11:50) 2.22 (13:10) 0 0 0 0 0
14-10-2019 22.5 (16:40) 15.2 (00:00) 18.8 6.11 (17:40) 1.67 (14:40) 1.2 0 0.6 0 0.6

Gráficas

Temp. máximas Temp. mínimas Temp. medias Precipitaciones Rachas de viento máximas Velocidades máximas media en intervalos de 10 minutos

Datos horarios

Fecha y hora oficial Temperatura (ºC) Velocidad del viento (km/h) Dirección del viento Racha (km/h) Dirección de racha Precipitación (mm) Presión (hPa) Tendencia (hPa) Humedad (%)
2019-11-12 23:00:00 10.7 3 Norte 10 Nordeste 0 -- -- 81
2019-11-12 22:00:00 11.5 2 Norte 14 Nordeste 0 -- -- 78
2019-11-12 21:00:00 12.2 3 Norte 15 Sudeste 0 -- -- 72
2019-11-12 20:00:00 11.7 2 Norte 8 Este 0 -- -- 76
2019-11-12 19:00:00 12.5 2 Noroeste 6 Norte 0 -- -- 72
2019-11-12 18:00:00 14.9 4 Nordeste 21 Sudeste 0 -- -- 62
2019-11-12 17:00:00 16 5 Sudeste 24 Sudeste 0 -- -- 56
2019-11-12 16:00:00 16.2 7 Sudeste 29 Noroeste 0 -- -- 57
2019-11-12 15:00:00 16.5 5 Noroeste 24 Noroeste 0 -- -- 65
2019-11-12 14:00:00 17.1 5 Norte 26 Nordeste 0 -- -- 64
2019-11-12 13:00:00 16.9 6 Norte 24 Noroeste 0 -- -- 68
2019-11-12 12:00:00 16.5 8 Norte 26 Nordeste 0 -- -- 69
2019-11-12 11:00:00 15.8 7 Norte 23 Norte 0.2 -- -- 75
2019-11-12 10:00:00 14.9 6 Norte 17 Norte 0 -- -- 78
2019-11-12 09:00:00 12.4 4 Norte 11 Noroeste 0 -- -- 96
2019-11-12 08:00:00 11 0 Calma 8 Oeste 0 -- -- 96
2019-11-12 07:00:00 11.1 0 Calma 3 Sur 0 -- -- 96
2019-11-12 06:00:00 12 0 Calma 9 Norte 0 -- -- 96
2019-11-12 05:00:00 12.3 3 Norte 9 Nordeste 0 -- -- 97
2019-11-12 04:00:00 12.4 4 Norte 9 Norte 0 -- -- 97
2019-11-12 03:00:00 12.6 2 Norte 5 Noroeste 0 -- -- 97
2019-11-12 02:00:00 12.8 3 Norte 5 Norte 0 -- -- 97
2019-11-12 01:00:00 13.1 0 Calma 4 Norte 0.2 -- -- 97
2019-11-12 00:00:00 12.9 2 Noroeste 8 Nordeste 0 -- -- 96
2019-11-11 23:00:00 13.3 3 Norte 4 Norte 0 -- -- 97
2019-11-11 22:00:00 13.6 0 Calma 4 Noroeste 0.2 -- -- 96
2019-11-11 21:00:00 13.8 0 Calma 4 Oeste 0.2 -- -- 96
2019-11-11 20:00:00 13.5 0 Calma 3 Noroeste 0 -- -- 96
2019-11-11 19:00:00 13.4 0 Calma 3 Norte 0.4 -- -- 95
2019-11-11 18:00:00 14 0 Calma 2 Norte 0.4 -- -- 93
2019-11-11 17:00:00 14 0 Calma 4 Sudeste 0 -- -- 91
2019-11-11 16:00:00 13.7 0 Calma 8 Este 0 -- -- 90
2019-11-11 15:00:00 14.1 2 Sudeste 8 Este 0 -- -- 83
2019-11-11 14:00:00 14 4 Nordeste 17 Norte 0 -- -- 83
2019-11-11 13:00:00 14 6 Noroeste 24 Noroeste 0 -- -- 79
2019-11-11 12:00:00 13.3 2 Sur 15 Sudeste 0 -- -- 80
2019-11-11 11:00:00 12 2 Sur 7 Sudoeste 0 -- -- 87
2019-11-11 10:00:00 11.3 0 Calma 4 Sudeste 0 -- -- 93
2019-11-11 09:00:00 10.6 0 Calma 3 Sur 0 -- -- 95
2019-11-11 08:00:00 10.4 0 Calma 3 Noroeste 0 -- -- 95
2019-11-11 07:00:00 10.3 0 Calma 4 Sudeste 0 -- -- 95
2019-11-11 06:00:00 10.2 0 Calma 5 Noroeste 0.2 -- -- 94
2019-11-11 05:00:00 10.2 0 Calma 7 Sudoeste 0.2 -- -- 93
2019-11-11 04:00:00 10.3 0 Calma 12 Nordeste 0.2 -- -- 92
2019-11-11 03:00:00 10.8 2 Sudoeste 11 Oeste 0 -- -- 88
2019-11-11 02:00:00 11.3 3 Oeste 14 Nordeste 0 -- -- 79
2019-11-11 01:00:00 11.2 3 Sudoeste 11 Sudeste 0 -- -- 76
2019-11-11 00:00:00 11.3 2 Sur 14 Sudoeste 0 -- -- 74
2019-11-10 23:00:00 11.2 2 Oeste 12 Norte 0 -- -- 71
2019-11-10 22:00:00 11 3 Sur 14 Noroeste 0 -- -- 67
2019-11-10 21:00:00 11.5 2 Este 14 Sur 0 -- -- 63
2019-11-10 20:00:00 11.3 0 Calma 12 Este 0 -- -- 63
2019-11-10 19:00:00 12.5 3 Sudoeste 15 Este 0 -- -- 60
2019-11-10 18:00:00 13.8 4 Norte 25 Norte 0 -- -- 48
2019-11-10 17:00:00 14.7 4 Sudoeste 28 Oeste 0 -- -- 48
2019-11-10 16:00:00 15.3 3 Este 29 Noroeste 0 -- -- 51
2019-11-10 15:00:00 15.6 7 Norte 30 Noroeste 0 -- -- 49
2019-11-10 14:00:00 15 8 Noroeste 28 Noroeste 0 -- -- 51
2019-11-10 13:00:00 15.2 7 Norte 28 Norte 0 -- -- 54
2019-11-10 12:00:00 15 7 Norte 22 Nordeste 0 -- -- 56
2019-11-10 11:00:00 13.5 5 Sudeste 19 Nordeste 0 -- -- 68
2019-11-10 10:00:00 12.2 4 Este 14 Sudoeste 0 -- -- 74
2019-11-10 09:00:00 10 2 Nordeste 12 Nordeste 0 -- -- 85
2019-11-10 08:00:00 9.3 2 Oeste 10 Nordeste 0 -- -- 89
2019-11-10 07:00:00 10 3 Nordeste 18 Noroeste 0 -- -- 86
2019-11-10 06:00:00 10.4 5 Norte 23 Norte 0 -- -- 87
2019-11-10 05:00:00 11 5 Norte 24 Noroeste 0 -- -- 88
2019-11-10 04:00:00 12.1 3 Norte 9 Oeste 0 -- -- 94
2019-11-10 03:00:00 12.5 2 Sudeste 10 Sur 1 -- -- 96
2019-11-10 02:00:00 11.9 0 Calma 2 Noroeste 0.8 -- -- 94
2019-11-10 01:00:00 11.4 0 Calma 3 Nordeste 0.2 -- -- 93
2019-11-10 00:00:00 11 0 Calma 3 Norte 0 -- -- 89
2019-11-09 23:00:00 11.1 0 Calma 10 Nordeste 0 -- -- 79
2019-11-09 22:00:00 11.5 4 Nordeste 16 Norte 0 -- -- 72
2019-11-09 21:00:00 12 3 Este 13 Nordeste 0 -- -- 61
2019-11-09 20:00:00 12.6 2 Norte 17 Este 0 -- -- 53
2019-11-09 19:00:00 12.8 4 Norte 19 Noroeste 0 -- -- 54
2019-11-09 18:00:00 13.5 6 Norte 25 Nordeste 0 -- -- 50
2019-11-09 17:00:00 14.9 3 Norte 30 Noroeste 0 -- -- 44
2019-11-09 16:00:00 16 6 Noroeste 23 Norte 0 -- -- 46
2019-11-09 15:00:00 16.6 7 Noroeste 23 Noroeste 0 -- -- 45
2019-11-09 14:00:00 17.1 5 Noroeste 28 Norte 0 -- -- 42
2019-11-09 13:00:00 17.4 6 Norte 18 Noroeste 0 -- -- 44
2019-11-09 12:00:00 17.2 3 Noroeste 17 Sudeste 0 -- -- 38
2019-11-09 11:00:00 15.5 6 Sudeste 15 Sudeste 0 -- -- 42
2019-11-09 10:00:00 13.4 5 Nordeste 17 Norte 0 -- -- 50
2019-11-09 09:00:00 11 3 Norte 11 Norte 0 -- -- 59
2019-11-09 08:00:00 8 3 Norte 8 Norte 0 -- -- 67
2019-11-09 07:00:00 8 3 Norte 10 Norte 0 -- -- 68
2019-11-09 06:00:00 8.6 3 Noroeste 10 Noroeste 0 -- -- 66
2019-11-09 05:00:00 8 4 Norte 10 Norte 0 -- -- 68
2019-11-09 04:00:00 8.2 3 Norte 13 Este 0 -- -- 69
2019-11-09 03:00:00 8.4 3 Norte 14 Norte 0 -- -- 69
2019-11-09 02:00:00 7.9 0 Calma 12 Norte 0 -- -- 70
2019-11-09 01:00:00 7.5 3 Norte 6 Norte 0 -- -- 76
2019-11-09 00:00:00 8.6 4 Norte 11 Norte 0 -- -- 69
2019-11-08 23:00:00 9 4 Norte 13 Nordeste 0 -- -- 67
2019-11-08 22:00:00 8.4 2 Norte 5 Norte 0 -- -- 77
2019-11-08 21:00:00 10.2 0 Calma 13 Nordeste 0 -- -- 71
2019-11-08 20:00:00 8.8 3 Norte 7 Norte 0 -- -- 73
2019-11-08 19:00:00 9.7 3 Norte 6 Norte 0 -- -- 69
2019-11-08 18:00:00 11.9 3 Norte 9 Sur 0 -- -- 64
2019-11-08 17:00:00 13.7 2 Sudeste 15 Norte 0 -- -- 54
2019-11-08 16:00:00 14.5 5 Sudeste 14 Nordeste 0 -- -- 50
2019-11-08 15:00:00 14.6 5 Norte 19 Noroeste 0 -- -- 52
2019-11-08 14:00:00 14.3 6 Norte 24 Nordeste 0 -- -- 54
2019-11-08 13:00:00 14.1 5 Nordeste 22 Noroeste 0 -- -- 57
2019-11-08 12:00:00 14.1 5 Norte 25 Norte 0 -- -- 63
2019-11-08 11:00:00 13.4 6 Norte 17 Norte 0 -- -- 66
2019-11-08 10:00:00 11.5 7 Norte 22 Noroeste 0 -- -- 74
2019-11-08 09:00:00 9.2 3 Norte 9 Nordeste 0 -- -- 87
2019-11-08 08:00:00 9 0 Calma 7 Sur 0 -- -- 88
2019-11-08 07:00:00 8.6 0 Calma 8 Noroeste 0 -- -- 89
2019-11-08 06:00:00 7.8 0 Calma 8 Nordeste 0 -- -- 90
2019-11-08 05:00:00 8 2 Norte 8 Noroeste 0 -- -- 87
2019-11-08 04:00:00 8.3 0 Calma 9 Nordeste 0 -- -- 86
2019-11-08 03:00:00 8.7 0 Calma 9 Nordeste 0 -- -- 83
2019-11-08 02:00:00 9.1 2 Norte 14 Este 0 -- -- 82
2019-11-08 01:00:00 9.7 0 Calma 21 Norte 0 -- -- 79
2019-11-08 00:00:00 10 2 Norte 13 Oeste 0 -- -- 76
2019-11-07 23:00:00 10.7 2 Nordeste 15 Norte 0 -- -- 75
2019-11-07 22:00:00 10.3 3 Norte 13 Norte 0 -- -- 80
2019-11-07 21:00:00 10.1 2 Norte 6 Nordeste 0 -- -- 87
2019-11-07 20:00:00 10.7 3 Norte 8 Norte 0 -- -- 89
2019-11-07 19:00:00 11.8 3 Norte 5 Norte 0 -- -- 89
2019-11-07 18:00:00 14.1 2 Norte 10 Este 0 -- -- 85
2019-11-07 17:00:00 15.6 3 Noroeste 27 Oeste 0 -- -- 78
2019-11-07 16:00:00 16.3 4 Norte 25 Noroeste 0 -- -- 80
2019-11-07 15:00:00 16.1 6 Norte 24 Nordeste 3 -- -- 88
2019-11-07 14:00:00 15.3 0 Calma 4 Noroeste 3.8 -- -- 94
2019-11-07 13:00:00 15 0 Calma 3 Sudoeste 0.8 -- -- 93
2019-11-07 12:00:00 14.5 0 Calma 4 Norte 0 -- -- 91
2019-11-07 11:00:00 13.7 0 Calma 5 Sudeste 0 -- -- 91
2019-11-07 10:00:00 13.3 0 Calma 6 Nordeste 0 -- -- 89
2019-11-07 09:00:00 11 0 Calma 4 Norte 0 -- -- 94
2019-11-07 08:00:00 10.6 2 Norte 5 Nordeste 0 -- -- 90
2019-11-07 07:00:00 11.4 2 Norte 9 Nordeste 0 -- -- 89
2019-11-07 06:00:00 11.6 3 Norte 14 Nordeste 0 -- -- 88
2019-11-07 05:00:00 10.7 3 Norte 5 Nordeste 0 -- -- 92
2019-11-07 04:00:00 10.7 2 Norte 6 Noroeste 0 -- -- 90
2019-11-07 03:00:00 11 2 Norte 6 Norte 0 -- -- 89
2019-11-07 02:00:00 10.6 2 Noroeste 5 Norte 0 -- -- 91
2019-11-07 01:00:00 10.9 2 Norte 4 Norte 0 -- -- 91
2019-11-07 00:00:00 11.6 2 Norte 5 Norte 0 -- -- 88
2019-11-06 23:00:00 12.2 0 Calma 5 Norte 0 -- -- 87
2019-11-06 22:00:00 12.5 2 Norte 3 Norte 0 -- -- 84
2019-11-06 21:00:00 12.3 0 Calma 11 Nordeste 0 -- -- 81
2019-11-06 20:00:00 11.7 2 Noroeste 5 Norte 0 -- -- 76
2019-11-06 19:00:00 13.1 0 Calma 10 Noroeste 0 -- -- 69
2019-11-06 18:00:00 14.9 2 Norte 18 Norte 0 -- -- 59
2019-11-06 17:00:00 15.6 4 Norte 23 Noroeste 0 -- -- 56
2019-11-06 16:00:00 16.4 5 Norte 22 Noroeste 0 -- -- 55
2019-11-06 15:00:00 17.3 5 Nordeste 19 Norte 0 -- -- 51
2019-11-06 14:00:00 17.6 4 Norte 22 Norte 0 -- -- 54
2019-11-06 13:00:00 17.4 6 Noroeste 29 Noroeste 0 -- -- 56
2019-11-06 12:00:00 17.1 6 Norte 21 Noroeste 0 -- -- 58
2019-11-06 11:00:00 16 3 Este 17 Noroeste 0 -- -- 63
2019-11-06 10:00:00 15 3 Este 9 Nordeste 0 -- -- 68
2019-11-06 09:00:00 11.6 0 Calma 7 Noroeste 0 -- -- 85
2019-11-06 08:00:00 9 0 Calma 6 Noroeste 0 -- -- 91
2019-11-06 07:00:00 9.8 3 Norte 13 Norte 0 -- -- 89
2019-11-06 06:00:00 10 5 Norte 10 Norte 0 -- -- 90
2019-11-06 05:00:00 10 5 Norte 11 Norte 0 -- -- 91
2019-11-06 04:00:00 9.8 3 Norte 7 Nordeste 0 -- -- 93
2019-11-06 03:00:00 10 2 Norte 3 Norte 0 -- -- 92
2019-11-06 02:00:00 10.4 2 Noroeste 5 Norte 0 -- -- 91
2019-11-06 01:00:00 11.1 2 Norte 4 Oeste 0 -- -- 90
2019-11-06 00:00:00 12 2 Norte 6 Nordeste 0 -- -- 88
2019-11-05 23:00:00 13.3 2 Norte 6 Este 0 -- -- 85
2019-11-05 22:00:00 13.7 2 Noroeste 7 Oeste 0 -- -- 85
2019-11-05 21:00:00 13.9 2 Noroeste 10 Oeste 0 -- -- 85
2019-11-05 20:00:00 14 0 Calma 6 Oeste 0 -- -- 82
2019-11-05 19:00:00 15 0 Calma 10 Sur 0 -- -- 76
2019-11-05 18:00:00 15.6 0 Calma 10 Sur 0 -- -- 71
2019-11-05 17:00:00 16.5 2 Sudeste 15 Sudoeste 0 -- -- 67
2019-11-05 16:00:00 16.2 0 Calma 17 Nordeste 0 -- -- 61
2019-11-05 15:00:00 16.6 6 Norte 21 Norte 0 -- -- 63
2019-11-05 14:00:00 16.4 6 Norte 18 Norte 0 -- -- 63
2019-11-05 13:00:00 16 5 Norte 24 Noroeste 0 -- -- 62
2019-11-05 12:00:00 16.1 5 Noroeste 27 Noroeste 0 -- -- 64
2019-11-05 11:00:00 15.1 6 Nordeste 27 Norte 0 -- -- 69
2019-11-05 10:00:00 13.1 5 Este 22 Sudeste 0 -- -- 79
2019-11-05 09:00:00 13.1 3 Este 21 Norte 0 -- -- 79
2019-11-05 08:00:00 12.2 6 Noroeste 24 Norte 0 -- -- 83
2019-11-05 07:00:00 12.6 5 Norte 26 Norte 0 -- -- 84
2019-11-05 06:00:00 12.4 5 Norte 24 Norte 0 -- -- 87
2019-11-05 05:00:00 12.2 6 Norte 33 Norte 0.2 -- -- 89
2019-11-05 04:00:00 13.2 6 Norte 30 Noroeste 0.8 -- -- 88
2019-11-05 03:00:00 15.1 2 Nordeste 17 Sur 1.6 -- -- 91
2019-11-05 02:00:00 15.8 2 Nordeste 14 Sudoeste 0.2 -- -- 85
2019-11-05 01:00:00 15.8 0 Calma 12 Este 0 -- -- 86
2019-11-05 00:00:00 16 3 Sudoeste 18 Sudoeste 0 -- -- 82
2019-11-04 23:00:00 14.3 0 Calma 6 Noroeste 0 -- -- 87
2019-11-04 22:00:00 15.1 2 Norte 10 Este 0 -- -- 88
2019-11-04 21:00:00 15.5 2 Norte 8 Sudeste 0 -- -- 89
2019-11-04 20:00:00 15.7 0 Calma 5 Norte 0 -- -- 88
2019-11-04 19:00:00 16.9 0 Calma 9 Sur 0.2 -- -- 83
2019-11-04 18:00:00 17.4 0 Calma 13 Este 0 -- -- 73
2019-11-04 17:00:00 18 3 Sudeste 14 Este 0 -- -- 73
2019-11-04 16:00:00 18.3 3 Sur 20 Nordeste 0 -- -- 70
2019-11-04 15:00:00 18.9 5 Este 14 Oeste 0 -- -- 72
2019-11-04 14:00:00 18.5 3 Nordeste 15 Norte 0 -- -- 71
2019-11-04 13:00:00 18.5 3 Sudeste 17 Este 0 -- -- 75
2019-11-04 12:00:00 18.4 3 Nordeste 14 Sudoeste 0 -- -- 78
2019-11-04 11:00:00 17.1 2 Nordeste 17 Sur 0 -- -- 84
2019-11-04 10:00:00 17 0 Calma 8 Este 0 -- -- 85
2019-11-04 09:00:00 16.1 0 Calma 9 Este 0 -- -- 92
2019-11-04 08:00:00 15.4 2 Noroeste 8 Sudeste 0 -- -- 95
2019-11-04 07:00:00 15.4 2 Nordeste 8 Sudeste 0 -- -- 94
2019-11-04 06:00:00 15.5 0 Calma 4 Sudeste 0.2 -- -- 95
2019-11-04 05:00:00 15.6 2 Nordeste 3 Noroeste 0.2 -- -- 94
2019-11-04 04:00:00 15.9 0 Calma 4 Noroeste 0 -- -- 92
2019-11-04 03:00:00 16.2 0 Calma 10 Norte 0 -- -- 91
2019-11-04 02:00:00 16.3 3 Norte 11 Noroeste 0 -- -- 90
2019-11-04 01:00:00 16.5 0 Calma 6 Norte 0.2 -- -- 93
2019-11-04 00:00:00 16.7 2 Norte 3 Noroeste 0 -- -- 93
2019-11-03 23:00:00 17.1 0 Calma 5 Sudeste 0 -- -- 89
2019-11-03 22:00:00 17.3 0 Calma 6 Sur 0 -- -- 88
2019-11-03 21:00:00 17.4 2 Oeste 11 Sudoeste 0 -- -- 85
2019-11-03 20:00:00 17.5 0 Calma 11 Sur 0 -- -- 84
2019-11-03 19:00:00 17.8 2 Sudoeste 12 Sudoeste 0 -- -- 81
2019-11-03 18:00:00 18.3 2 Sudoeste 17 Sudeste 0 -- -- 79
2019-11-03 17:00:00 18.5 3 Sur 12 Sur 0 -- -- 78
2019-11-03 16:00:00 18.8 4 Sudeste 19 Sudoeste 0 -- -- 74
2019-11-03 15:00:00 18.7 4 Sudeste 14 Norte 0 -- -- 76
2019-11-03 14:00:00 19.1 5 Sudoeste 17 Sudoeste 0 -- -- 75
2019-11-03 13:00:00 19.1 4 Sudeste 16 Sudoeste 0 -- -- 73
2019-11-03 12:00:00 17.9 3 Este 19 Norte 0 -- -- 78
2019-11-03 11:00:00 18.5 4 Norte 22 Noroeste 0 -- -- 80
2019-11-03 10:00:00 16.1 2 Sudoeste 19 Sudoeste 0.2 -- -- 89
2019-11-03 09:00:00 15.5 2 Norte 18 Noroeste 0 -- -- 91
2019-11-03 08:00:00 15 3 Norte 15 Noroeste 0.2 -- -- 91
2019-11-03 07:00:00 16.4 3 Noroeste 11 Norte 0.6 -- -- 94
2019-11-03 06:00:00 16.6 4 Norte 21 Oeste 1.6 -- -- 94
2019-11-03 05:00:00 16.3 0 Calma 9 Sudoeste 4.4 -- -- 96
2019-11-03 04:00:00 16.2 0 Calma 6 Sudoeste 2 -- -- 97
2019-11-03 03:00:00 16.2 3 Norte 9 Sudeste 1 -- -- 97
2019-11-03 02:00:00 16.1 0 Calma 4 Nordeste 1.6 -- -- 96
2019-11-03 01:00:00 16.1 0 Calma 11 Norte 1.2 -- -- 95
2019-11-03 00:00:00 15.5 3 Norte 8 Nordeste 0.4 -- -- 94
2019-11-02 23:00:00 15.5 2 Norte 13 Sur 0 -- -- 90
2019-11-02 22:00:00 15.5 0 Calma 12 Sudoeste 0 -- -- 91
2019-11-02 21:00:00 16 2 Norte 18 Sudoeste 0 -- -- 89
2019-11-02 20:00:00 16.8 2 Norte 16 Noroeste 0 -- -- 87
2019-11-02 19:00:00 17.4 2 Noroeste 11 Nordeste 0 -- -- 87
2019-11-02 18:00:00 18.8 2 Noroeste 11 Oeste 0 -- -- 85
2019-11-02 17:00:00 19.8 3 Sur 10 Sudeste 0 -- -- 82
2019-11-02 16:00:00 19.9 3 Sur 17 Oeste 0 -- -- 87
2019-11-02 15:00:00 20.1 3 Sur 17 Sur 0.8 -- -- 89
2019-11-02 14:00:00 20.6 5 Sur 13 Sur 0.2 -- -- 86
2019-11-02 13:00:00 19.6 3 Sur 13 Sudoeste 1 -- -- 90
2019-11-02 12:00:00 18.6 0 Calma 4 Este 4 -- -- 96
2019-11-02 11:00:00 18.5 0 Calma 8 Sudoeste 2 -- -- 95
2019-11-02 10:00:00 18 0 Calma 5 Nordeste 1 -- -- 95
2019-11-02 09:00:00 17.5 0 Calma 9 Sur 2.4 -- -- 95
2019-11-02 08:00:00 17.4 0 Calma 8 Oeste 1 -- -- 96
2019-11-02 07:00:00 17.5 0 Calma 4 Oeste 0.6 -- -- 96
2019-11-02 06:00:00 17.4 0 Calma 5 Nordeste 0.4 -- -- 96
2019-11-02 05:00:00 17.3 0 Calma 2 Oeste 0.2 -- -- 95
2019-11-02 04:00:00 17.2 0 Calma 4 Norte 0.6 -- -- 94
2019-11-02 03:00:00 17.4 0 Calma 7 Oeste 0.2 -- -- 90
2019-11-02 02:00:00 17.5 0 Calma 10 Oeste 0 -- -- 88
2019-11-02 01:00:00 17.4 2 Norte 7 Norte 0 -- -- 88
2019-11-02 00:00:00 17.8 0 Calma 4 Norte 0 -- -- 87
2019-11-01 23:00:00 18.7 0 Calma 9 Sudoeste 0 -- -- 85
2019-11-01 22:00:00 19.2 3 Sur 9 Sudeste 0 -- -- 83
2019-11-01 21:00:00 19.6 2 Sudeste 8 Sudeste 0 -- -- 82
2019-11-01 20:00:00 20.2 3 Sur 8 Nordeste 0 -- -- 79
2019-11-01 19:00:00 20.7 0 Calma 9 Norte 0 -- -- 76
2019-11-01 18:00:00 21.8 3 Sudoeste 12 Sudoeste 0 -- -- 72
2019-11-01 17:00:00 22.9 3 Oeste 18 Noroeste 0 -- -- 68
2019-11-01 16:00:00 23.5 4 Sudeste 20 Noroeste 0 -- -- 64
2019-11-01 15:00:00 23.1 4 Norte 26 Noroeste 0 -- -- 66
2019-11-01 14:00:00 24.1 6 Norte 26 Norte 0 -- -- 63
2019-11-01 13:00:00 23 9 Norte 27 Noroeste 0 -- -- 67
2019-11-01 12:00:00 23.4 9 Norte 28 Noroeste 0 -- -- 65
2019-11-01 11:00:00 24.4 7 Norte 24 Norte 0 -- -- 62
2019-11-01 10:00:00 22.5 7 Norte 26 Nordeste 0 -- -- 69
2019-11-01 09:00:00 19.3 6 Norte 18 Norte 0 -- -- 82
2019-11-01 08:00:00 18 7 Norte 18 Norte 0 -- -- 86
2019-11-01 07:00:00 18.2 4 Norte 13 Norte 0 -- -- 87
2019-11-01 06:00:00 18.6 3 Nordeste 13 Sudeste 0 -- -- 87
2019-11-01 05:00:00 18.9 2 Este 12 Nordeste 0 -- -- 88
2019-11-01 04:00:00 18.9 2 Norte 9 Norte 0 -- -- 88
2019-11-01 03:00:00 19.3 4 Nordeste 15 Noroeste 0 -- -- 87
2019-11-01 02:00:00 19.6 4 Norte 15 Nordeste 0 -- -- 87
2019-11-01 01:00:00 19.6 3 Norte 23 Norte 0 -- -- 88
2019-11-01 00:00:00 19.7 4 Norte 14 Norte 0 -- -- 87
2019-10-31 23:00:00 19.9 4 Nordeste 12 Este 0 -- -- 85
2019-10-31 22:00:00 20 3 Nordeste 18 Nordeste 0 -- -- 84
2019-10-31 21:00:00 19.9 3 Norte 11 Noroeste 0 -- -- 84
2019-10-31 20:00:00 20.1 2 Noroeste 12 Noroeste 0 -- -- 83
2019-10-31 19:00:00 20.6 0 Calma 12 Norte 0 -- -- 81
2019-10-31 18:00:00 21.2 2 Sudeste 11 Sudoeste 0 -- -- 77
2019-10-31 17:00:00 22.1 5 Norte 14 Norte 0 -- -- 73
2019-10-31 16:00:00 22.3 5 Nordeste 18 Este 0 -- -- 72
2019-10-31 15:00:00 21.4 3 Norte 17 Norte 0 -- -- 76
2019-10-31 14:00:00 21.6 4 Nordeste 18 Norte 0 -- -- 77
2019-10-31 13:00:00 20.2 3 Este 11 Norte 0 -- -- 84
2019-10-31 12:00:00 20.4 4 Norte 16 Noroeste 0 -- -- 79
2019-10-31 11:00:00 20.8 4 Norte 17 Noroeste 0 -- -- 76
2019-10-31 10:00:00 21 3 Norte 15 Oeste 0 -- -- 73
2019-10-31 09:00:00 20.1 2 Sudeste 9 Sudeste 0 -- -- 75
2019-10-31 08:00:00 16.8 0 Calma 5 Sudoeste 0 -- -- 87
2019-10-31 07:00:00 16.7 0 Calma 6 Norte 0 -- -- 87
2019-10-31 06:00:00 16.4 2 Norte 4 Norte 0 -- -- 86
2019-10-31 05:00:00 16.7 0 Calma 8 Oeste 0 -- -- 82
2019-10-31 04:00:00 17.1 0 Calma 5 Norte 0 -- -- 80
2019-10-31 03:00:00 17.3 0 Calma 14 Nordeste 0 -- -- 80
2019-10-31 02:00:00 17.7 3 Noroeste 12 Norte 0 -- -- 79
2019-10-31 01:00:00 17.3 0 Calma 8 Norte 0 -- -- 78
2019-10-31 00:00:00 17.4 0 Calma 6 Sudeste 0 -- -- 77
2019-10-30 23:00:00 18.4 0 Calma 8 Norte 0 -- -- 73
2019-10-30 22:00:00 18.5 2 Nordeste 9 Oeste 0 -- -- 72
2019-10-30 21:00:00 19 0 Calma 8 Norte 0 -- -- 70
2019-10-30 20:00:00 18.9 0 Calma 6 Norte 0 -- -- 69
2019-10-30 19:00:00 20.2 2 Norte 4 Norte 0 -- -- 64
2019-10-30 18:00:00 22.5 0 Calma 10 Noroeste 0 -- -- 57
2019-10-30 17:00:00 23.5 3 Norte 17 Nordeste 0 -- -- 53
2019-10-30 16:00:00 24.1 5 Norte 18 Norte 0 -- -- 50
2019-10-30 15:00:00 25 4 Norte 14 Norte 0 -- -- 45
2019-10-30 14:00:00 26.3 5 Noroeste 21 Norte 0 -- -- 40
2019-10-30 13:00:00 26.4 6 Norte 17 Norte 0 -- -- 42
2019-10-30 12:00:00 26.2 4 Norte 23 Noroeste 0 -- -- 41
2019-10-30 11:00:00 25.2 5 Norte 13 Nordeste 0 -- -- 45
2019-10-30 10:00:00 20.8 3 Sur 6 Sur 0 -- -- 65
2019-10-30 09:00:00 16.7 3 Sur 5 Sur 0 -- -- 79
2019-10-30 08:00:00 13.8 0 Calma 4 Sudoeste 0 -- -- 89
2019-10-30 07:00:00 14 2 Noroeste 4 Noroeste 0 -- -- 88
2019-10-30 06:00:00 14.4 2 Noroeste 3 Noroeste 0 -- -- 87
2019-10-30 05:00:00 14.6 2 Norte 4 Norte 0 -- -- 86
2019-10-30 04:00:00 15.1 3 Norte 5 Noroeste 0 -- -- 85
2019-10-30 03:00:00 15.9 0 Calma 6 Sudeste 0 -- -- 80
2019-10-30 02:00:00 17.1 2 Nordeste 14 Norte 0 -- -- 80
2019-10-30 01:00:00 16.7 4 Noroeste 12 Nordeste 0 -- -- 81
2019-10-30 00:00:00 16.6 0 Calma 7 Nordeste 0 -- -- 77
2019-10-29 23:00:00 17.9 5 Norte 17 Nordeste 0 -- -- 76
2019-10-29 22:00:00 18.1 6 Norte 15 Norte 0 -- -- 73
2019-10-29 21:00:00 17.6 0 Calma 9 Nordeste 0 -- -- 70
2019-10-29 20:00:00 18.4 3 Norte 9 Norte 0 -- -- 66
2019-10-29 19:00:00 20 4 Norte 11 Norte 0 -- -- 59
2019-10-29 18:00:00 21.6 4 Norte 19 Norte 0 -- -- 54
2019-10-29 17:00:00 23 4 Norte 18 Norte 0 -- -- 46
2019-10-29 16:00:00 24.1 6 Norte 22 Norte 0 -- -- 45
2019-10-29 15:00:00 24.8 4 Norte 18 Noroeste 0 -- -- 42
2019-10-29 14:00:00 25.1 5 Norte 16 Noroeste 0 -- -- 42
2019-10-29 13:00:00 24.9 4 Nordeste 23 Nordeste 0 -- -- 47
2019-10-29 12:00:00 25.5 5 Norte 14 Norte 0 -- -- 50
2019-10-29 11:00:00 23.8 4 Norte 13 Sudeste 0 -- -- 55
2019-10-29 10:00:00 20.7 5 Nordeste 16 Norte 0 -- -- 71
2019-10-29 09:00:00 15.5 0 Calma 3 Sur 0 -- -- 87
2019-10-29 08:00:00 13.6 2 Noroeste 3 Noroeste 0 -- -- 92
2019-10-29 07:00:00 13.8 0 Calma 7 Este 0 -- -- 91
2019-10-29 06:00:00 14.6 0 Calma 11 Sudeste 0 -- -- 89
2019-10-29 05:00:00 14.2 2 Sudoeste 8 Nordeste 0 -- -- 90
2019-10-29 04:00:00 14.6 0 Calma 8 Sur 0 -- -- 88
2019-10-29 03:00:00 14.4 0 Calma 4 Norte 0 -- -- 89
2019-10-29 02:00:00 14.6 0 Calma 5 Este 0 -- -- 87
2019-10-29 01:00:00 16.3 4 Sudeste 19 Norte 0 -- -- 83
2019-10-29 00:00:00 16.6 3 Noroeste 15 Nordeste 0 -- -- 85
2019-10-28 23:00:00 17.2 2 Norte 13 Nordeste 0 -- -- 79
2019-10-28 22:00:00 17.1 0 Calma 5 Nordeste 0 -- -- 79
2019-10-28 21:00:00 17.3 0 Calma 8 Noroeste 0 -- -- 78
2019-10-28 20:00:00 17.5 2 Norte 5 Noroeste 0 -- -- 77
2019-10-28 19:00:00 18.9 2 Noroeste 5 Norte 0 -- -- 71
2019-10-28 18:00:00 21.2 0 Calma 8 Nordeste 0 -- -- 63
2019-10-28 17:00:00 22.5 3 Oeste 15 Sur 0 -- -- 58
2019-10-28 16:00:00 23.2 5 Sur 17 Sur 0 -- -- 57
2019-10-28 15:00:00 23.1 6 Sur 18 Sur 0 -- -- 57
2019-10-28 14:00:00 23.5 5 Sudeste 17 Sur 0 -- -- 55
2019-10-28 13:00:00 23.1 5 Sur 14 Sur 0 -- -- 54
2019-10-28 12:00:00 22.4 4 Sur 14 Sur 0 -- -- 52
2019-10-28 11:00:00 20.3 4 Sudeste 9 Sur 0 -- -- 55
2019-10-28 10:00:00 16.8 3 Sur 5 Sur 0 -- -- 74
2019-10-28 09:00:00 12.7 0 Calma 3 Sur 0 -- -- 92
2019-10-28 08:00:00 12.3 0 Calma 3 Norte 0 -- -- 92
2019-10-28 07:00:00 12.5 0 Calma 3 Norte 0 -- -- 91
2019-10-28 06:00:00 12.2 0 Calma 2 Norte 0 -- -- 92
2019-10-28 05:00:00 11.8 0 Calma 2 Sudoeste 0 -- -- 90
2019-10-28 04:00:00 11.4 0 Calma 2 Norte 0 -- -- 91
2019-10-28 03:00:00 11.4 0 Calma 2 Norte -- -- -- 89
2019-10-28 02:00:00 11.3 2 Norte 3 Norte 0 -- -- 89
2019-10-28 01:00:00 11.5 0 Calma 3 Norte 0 -- -- 87
2019-10-28 00:00:00 11.7 2 Noroeste 3 Norte 0 -- -- 84
2019-10-27 23:00:00 12.4 2 Noroeste 3 Norte 0 -- -- 81
2019-10-27 22:00:00 13.5 2 Noroeste 2 Noroeste 0 -- -- 80
2019-10-27 21:00:00 13.9 0 Calma 3 Norte 0 -- -- 76
2019-10-27 20:00:00 14.6 2 Noroeste 4 Norte 0 -- -- 71
2019-10-27 19:00:00 16 2 Noroeste 4 Sur 0 -- -- 64
2019-10-27 18:00:00 18.8 0 Calma 12 Sudoeste 0 -- -- 55
2019-10-27 17:00:00 20.6 3 Sur 15 Sudoeste 0 -- -- 48
2019-10-27 16:00:00 21.6 5 Sur 19 Sur 0 -- -- 46
2019-10-27 15:00:00 22 6 Sur 19 Sur 0 -- -- 47
2019-10-27 14:00:00 22.3 6 Sur 22 Sur 0 -- -- 45
2019-10-27 13:00:00 22.6 6 Sur 17 Sudeste 0 -- -- 41
2019-10-27 12:00:00 21.9 5 Sur 14 Sudoeste 0 -- -- 49
2019-10-27 11:00:00 20 5 Sur 13 Sur 0 -- -- 54
2019-10-27 10:00:00 16.8 2 Sudeste 4 Sur 0 -- -- 68
2019-10-27 09:00:00 12.8 0 Calma 3 Sur 0 -- -- 80
2019-10-27 08:00:00 9.8 0 Calma 3 Norte 0 -- -- 91
2019-10-27 07:00:00 9.8 0 Calma 3 Noroeste 0 -- -- 90
2019-10-27 06:00:00 9.8 0 Calma 3 Norte 0 -- -- 88
2019-10-27 05:00:00 10 0 Calma 2 Noroeste 0 -- -- 87
2019-10-27 04:00:00 10.6 0 Calma 2 Noroeste 0 -- -- 86
2019-10-27 03:00:00 10.8 0 Calma 2 Noroeste 0 -- -- 85
2019-10-27 02:00:00 11.2 -- -- -- -- 0 -- -- 83
2019-10-27 01:00:00 12 2 Noroeste 3 Noroeste 0 -- -- 79
2019-10-27 00:00:00 12.5 0 Calma 2 Noroeste 0 -- -- 78
2019-10-26 23:00:00 13.1 -- -- -- -- 0 -- -- 76
2019-10-26 22:00:00 13.9 2 Noroeste 3 Norte 0 -- -- 73
2019-10-26 21:00:00 15.2 2 Norte 4 Norte 0 -- -- 68
2019-10-26 20:00:00 17.2 2 Norte 6 Norte 0 -- -- 61
2019-10-26 19:00:00 19.7 0 Calma 8 Sudoeste 0 -- -- 52
2019-10-26 18:00:00 22.1 3 Sudoeste 15 Sur 0 -- -- 44
2019-10-26 17:00:00 23.2 5 Sur 17 Sur 0 -- -- 40
2019-10-26 16:00:00 23.6 6 Sur 15 Sudoeste 0 -- -- 39
2019-10-26 15:00:00 24 6 Sur 20 Sudoeste 0 -- -- 37
2019-10-26 14:00:00 23.8 7 Sur 19 Sur 0 -- -- 41
2019-10-26 13:00:00 22.5 5 Sur 11 Sur 0 -- -- 40
2019-10-26 12:00:00 19.9 4 Sur 9 Sur 0 -- -- 48
2019-10-26 11:00:00 15.8 2 Sur 5 Sur 0 -- -- 64
2019-10-26 10:00:00 11.8 0 Calma 3 Sur 0 -- -- 76
2019-10-26 09:00:00 8.3 0 Calma 2 Norte 0 -- -- 88
2019-10-26 08:00:00 8.5 0 Calma 2 Noroeste 0 -- -- 87
2019-10-26 07:00:00 8.6 2 Noroeste 3 Norte 0 -- -- 87
2019-10-26 06:00:00 9 0 Calma 3 Norte 0 -- -- 86
2019-10-26 05:00:00 9.5 2 Norte 4 Norte 0 -- -- 85
2019-10-26 04:00:00 9.5 0 Calma 3 Norte 0 -- -- 85
2019-10-26 03:00:00 9.7 2 Norte 4 Norte 0 -- -- 84
2019-10-26 02:00:00 9.9 2 Norte -- -- 0 -- -- 83
2019-10-26 01:00:00 10.3 0 Calma 3 Norte 0 -- -- 83
2019-10-26 00:00:00 10.8 2 Norte 3 Norte 0 -- -- 81
2019-10-25 23:00:00 11.4 3 Norte -- -- 0 -- -- 79
2019-10-25 22:00:00 12.4 2 Norte 3 Norte 0 -- -- 75
2019-10-25 21:00:00 13.7 2 Norte 4 Norte 0 -- -- 70
2019-10-25 20:00:00 15.6 2 Noroeste 4 Nordeste 0 -- -- 63
2019-10-25 19:00:00 18.7 0 Calma 10 Sur 0 -- -- 52
2019-10-25 18:00:00 21.2 4 Sur 12 Oeste 0 -- -- 44
2019-10-25 17:00:00 22.9 5 Sur 18 Sudoeste 0 -- -- 41
2019-10-25 16:00:00 23.1 5 Sur 21 Sur 0 -- -- 41
2019-10-25 15:00:00 23.7 6 Sur 17 Sur 0 -- -- 41
2019-10-25 14:00:00 23 6 Sur 16 Sur 0 -- -- 44
2019-10-25 13:00:00 21.7 6 Sudoeste 15 Sur 0 -- -- 47
2019-10-25 12:00:00 19.6 6 Sur 14 Sur 0 -- -- 51
2019-10-25 11:00:00 16.8 2 Sur 5 Sur 0 -- -- 62
2019-10-25 10:00:00 12.4 0 Calma 4 Norte 0 -- -- 79
2019-10-25 09:00:00 8.5 0 Calma 3 Norte 0 -- -- 89
2019-10-25 08:00:00 8.2 0 Calma 4 Norte 0 -- -- 87
2019-10-25 07:00:00 8.5 0 Calma 4 Norte 0 -- -- 85
2019-10-25 06:00:00 8.8 0 Calma 5 Norte 0 -- -- 84
2019-10-25 05:00:00 9.2 2 Noroeste 6 Sudoeste 0 -- -- 84
2019-10-25 04:00:00 9.6 2 Noroeste 4 Norte 0 -- -- 81
2019-10-25 03:00:00 10 2 Oeste 5 Sur 0 -- -- 80
2019-10-25 02:00:00 10.7 0 Calma 4 Noroeste 0 -- -- 75
2019-10-25 01:00:00 11.6 3 Norte 5 Norte 0 -- -- 73
2019-10-25 00:00:00 13.3 3 Oeste 10 Sudeste 0 -- -- 67
2019-10-24 23:00:00 13.3 3 Norte 7 Noroeste 0 -- -- 65
2019-10-24 22:00:00 13.9 2 Noroeste 5 Norte 0 -- -- 67
2019-10-24 21:00:00 15 2 Noroeste 13 Noroeste 0 -- -- 64
2019-10-24 20:00:00 16.2 5 Norte 17 Norte 0 -- -- 59
2019-10-24 19:00:00 18 2 Norte 13 Nordeste 0 -- -- 56
2019-10-24 18:00:00 19.1 4 Noroeste 14 Norte 0 -- -- 49
2019-10-24 17:00:00 19.6 5 Norte 20 Nordeste 0 -- -- 49
2019-10-24 16:00:00 19.6 6 Norte 22 Nordeste 0 -- -- 49
2019-10-24 15:00:00 19.7 5 Noroeste 24 Noroeste 0 -- -- 48
2019-10-24 14:00:00 19.4 6 Norte 21 Norte 0 -- -- 47
2019-10-24 13:00:00 18.8 5 Norte 17 Norte 0 -- -- 51
2019-10-24 12:00:00 17.3 4 Noroeste 19 Noroeste 0 -- -- 60
2019-10-24 11:00:00 15.6 4 Norte 16 Este 0 -- -- 67
2019-10-24 10:00:00 13.1 2 Nordeste 10 Sudeste 0 -- -- 79
2019-10-24 09:00:00 10 4 Este 13 Sudeste 0 -- -- 92
2019-10-24 08:00:00 10.3 2 Norte 13 Sudeste 0 -- -- 90
2019-10-24 07:00:00 10.1 3 Nordeste 8 Nordeste 0 -- -- 92
2019-10-24 06:00:00 10.4 2 Norte 11 Noroeste 0 -- -- 91
2019-10-24 05:00:00 11.3 3 Norte 10 Nordeste 0 -- -- 90
2019-10-24 04:00:00 11.9 2 Norte 8 Norte 0 -- -- 90
2019-10-24 03:00:00 11.9 0 Calma 9 Sur 0 -- -- 92
2019-10-24 02:00:00 11.8 0 Calma 10 Nordeste 0 -- -- 92
2019-10-24 01:00:00 12.3 3 Noroeste 14 Noroeste 0 -- -- 91
2019-10-24 00:00:00 12.3 4 Norte 13 Norte 0.2 -- -- 94
2019-10-23 23:00:00 11.7 0 Calma 3 Norte 0 -- -- 96
2019-10-23 22:00:00 11.4 2 Noroeste 4 Norte 0 -- -- 92
2019-10-23 21:00:00 11.9 2 Norte 11 Sudoeste 0.6 -- -- 93
2019-10-23 20:00:00 12.4 2 Este 14 Sudoeste 1.8 -- -- 87
2019-10-23 19:00:00 15.1 0 Calma 13 Norte 0 -- -- 71
2019-10-23 18:00:00 16.3 4 Norte 15 Noroeste 0 -- -- 60
2019-10-23 17:00:00 17 4 Norte 22 Sudeste 0 -- -- 59
2019-10-23 16:00:00 17.8 5 Sur 26 Sudoeste 0 -- -- 52
2019-10-23 15:00:00 17.2 5 Este 18 Oeste 0 -- -- 52
2019-10-23 14:00:00 15.4 3 Norte 13 Sudoeste 0.2 -- -- 76
2019-10-23 13:00:00 16.5 4 Sur 17 Sudeste 0 -- -- 61
2019-10-23 12:00:00 14.7 3 Este 8 Norte 0 -- -- 71
2019-10-23 11:00:00 14.2 0 Calma 3 Sur 0 -- -- 84
2019-10-23 10:00:00 11.3 0 Calma 3 Sur 0.2 -- -- 96
2019-10-23 09:00:00 9.2 0 Calma 3 Norte 0 -- -- 96
2019-10-23 08:00:00 9.5 2 Noroeste 3 Norte 0 -- -- 96
2019-10-23 07:00:00 9.6 2 Norte 3 Norte 0 -- -- 95
2019-10-23 06:00:00 10.2 0 Calma 3 Norte 0 -- -- 95
2019-10-23 05:00:00 10.6 0 Calma 5 Norte 2.8 -- -- 95
2019-10-23 04:00:00 10.1 2 Norte 3 Norte 0 -- -- 90
2019-10-23 03:00:00 10.1 0 Calma 4 Sudeste 0 -- -- 87
2019-10-23 02:00:00 9.9 0 Calma 4 Norte 0 -- -- 88
2019-10-23 01:00:00 9.8 0 Calma 3 Noroeste 0 -- -- 84
2019-10-23 00:00:00 11.1 2 Noroeste 9 Nordeste 0 -- -- 79
2019-10-22 23:00:00 11.5 2 Nordeste 9 Este 0 -- -- 80
2019-10-22 22:00:00 11.4 0 Calma 7 Nordeste 0 -- -- 81
2019-10-22 21:00:00 11.3 2 Nordeste 7 Norte 0 -- -- 78
2019-10-22 20:00:00 11.9 0 Calma 6 Sudoeste 0 -- -- 74
2019-10-22 19:00:00 12.2 2 Norte 7 Este 0 -- -- 78
2019-10-22 18:00:00 12 3 Norte 16 Nordeste 0.2 -- -- 81
2019-10-22 17:00:00 13.3 6 Norte 18 Norte 0 -- -- 72
2019-10-22 16:00:00 13.7 3 Nordeste 13 Norte 0 -- -- 70
2019-10-22 15:00:00 14 3 Nordeste 21 Norte 0.4 -- -- 73
2019-10-22 14:00:00 15.7 3 Sudeste 10 Sudoeste 0 -- -- 56
2019-10-22 13:00:00 17.7 0 Calma 13 Sudoeste 0 -- -- 48
2019-10-22 12:00:00 18.7 4 Sur 10 Sur 0 -- -- 50
2019-10-22 11:00:00 14.5 3 Sur 6 Sur 0 -- -- 70
2019-10-22 10:00:00 9.8 0 Calma 4 Sur 0 -- -- 88
2019-10-22 09:00:00 7.5 0 Calma 3 Noroeste 0 -- -- 93
2019-10-22 08:00:00 7.6 0 Calma 3 Norte 0 -- -- 91
2019-10-22 07:00:00 7.9 0 Calma 3 Noroeste 0 -- -- 90
2019-10-22 06:00:00 8.2 0 Calma 3 Noroeste 0 -- -- 89
2019-10-22 05:00:00 8.9 0 Calma 3 Norte 0 -- -- 87
2019-10-22 04:00:00 9.4 0 Calma 5 Sudoeste 0 -- -- 86
2019-10-22 03:00:00 10 0 Calma 4 Norte 0 -- -- 83
2019-10-22 02:00:00 9.8 0 Calma 5 Norte 0 -- -- 83
2019-10-22 01:00:00 9.4 0 Calma 3 Noroeste 0 -- -- 85
2019-10-22 00:00:00 9.8 0 Calma 3 Norte 0 -- -- 83
2019-10-21 23:00:00 10.5 3 Norte 4 Norte 0 -- -- 79
2019-10-21 22:00:00 11.6 0 Calma 4 Norte 0 -- -- 73
2019-10-21 21:00:00 13 0 Calma 0 Calma 0 -- -- 68
2019-10-21 20:00:00 15 0 Calma 0 Calma 0 -- -- 64
2019-10-21 19:00:00 16.9 0 Calma 12 Sur 0 -- -- 57
2019-10-21 18:00:00 17.8 3 Sudoeste 12 Sur 0 -- -- 56
2019-10-21 17:00:00 18.6 0 Calma 11 Sudeste 0 -- -- 46
2019-10-21 16:00:00 19 0 Calma 11 Sudoeste 0 -- -- 46
2019-10-21 15:00:00 19.3 3 Sudeste 10 Sur 0 -- -- 42
2019-10-21 14:00:00 18.3 0 Calma 9 Sudoeste 0 -- -- 47
2019-10-21 13:00:00 20.6 5 Sur 12 Sur 0 -- -- 41
2019-10-21 12:00:00 18.2 4 Sur 8 Sur 0 -- -- 50
2019-10-21 11:00:00 14.1 4 Sur 7 Sur 0 -- -- 70
2019-10-21 10:00:00 10.8 0 Calma 4 Sur 0 -- -- 86
2019-10-21 09:00:00 7.4 0 Calma 3 Norte 0 -- -- 95
2019-10-21 08:00:00 7.5 0 Calma 3 Norte 0 -- -- 94
2019-10-21 07:00:00 7.6 0 Calma 3 Norte 0 -- -- 93
2019-10-21 06:00:00 8 0 Calma 3 Norte 0 -- -- 93
2019-10-21 05:00:00 8.4 0 Calma 4 Oeste 0 -- -- 93
2019-10-21 04:00:00 8.8 0 Calma 3 Norte 0 -- -- 92
2019-10-21 03:00:00 9.3 0 Calma 4 Norte 0 -- -- 91
2019-10-21 02:00:00 9.7 0 Calma 3 Noroeste 0 -- -- 91
2019-10-21 01:00:00 10.4 2 Noroeste 4 Norte 0 -- -- 89
2019-10-21 00:00:00 10.5 3 Norte 4 Noroeste 0 -- -- 88
2019-10-20 23:00:00 10.9 0 Calma 4 Noroeste 0 -- -- 85
2019-10-20 22:00:00 11 0 Calma 4 Norte 0 -- -- 82
2019-10-20 21:00:00 11.8 2 Norte 4 Norte 0 -- -- 78
2019-10-20 20:00:00 13.5 3 Norte 5 Sur 0 -- -- 70
2019-10-20 19:00:00 15.9 0 Calma 10 Noroeste 0 -- -- 60
2019-10-20 18:00:00 17.5 3 Norte 13 Oeste 0 -- -- 51
2019-10-20 17:00:00 18.3 6 Norte 19 Norte 0 -- -- 47
2019-10-20 16:00:00 18.3 4 Sudoeste 17 Sudoeste 0 -- -- 52
2019-10-20 15:00:00 18.7 4 Sur 17 Sur 0 -- -- 51
2019-10-20 14:00:00 18.5 4 Nordeste 18 Sur 0 -- -- 52
2019-10-20 13:00:00 18.2 5 Este 17 Sudoeste 0 -- -- 53
2019-10-20 12:00:00 17.1 5 Este 20 Norte 0 -- -- 61
2019-10-20 11:00:00 15.4 3 Norte 25 Nordeste 0 -- -- 72
2019-10-20 10:00:00 12.7 2 Norte 8 Norte 0 -- -- 91
2019-10-20 09:00:00 11.1 0 Calma 8 Noroeste 0 -- -- 96
2019-10-20 08:00:00 11.5 0 Calma 9 Nordeste 0 -- -- 95
2019-10-20 07:00:00 11.8 0 Calma 4 Noroeste 0 -- -- 95
2019-10-20 06:00:00 12.1 0 Calma 19 Norte 1.2 -- -- 91
2019-10-20 05:00:00 13 3 Nordeste 16 Nordeste 0 -- -- 84
2019-10-20 04:00:00 13.5 2 Sudeste 15 Norte 0.2 -- -- 87
2019-10-20 03:00:00 14.3 4 Nordeste 26 Oeste 0 -- -- 87
2019-10-20 02:00:00 14.5 3 Sur 14 Sudoeste 0 -- -- 89
2019-10-20 01:00:00 15.8 3 Norte 19 Norte 0.4 -- -- 90
2019-10-20 00:00:00 17.1 0 Calma 14 Sur 6.8 -- -- 93
2019-10-19 23:00:00 18.5 5 Sur 18 Sudoeste 0.8 -- -- 90
2019-10-19 22:00:00 18.4 3 Sudoeste 16 Oeste 0.2 -- -- 88
2019-10-19 21:00:00 18.1 2 Sudeste 9 Sur 0.2 -- -- 91
2019-10-19 20:00:00 18.3 2 Sudeste 9 Oeste 0.4 -- -- 90
2019-10-19 19:00:00 19.3 4 Sudeste 20 Sudoeste 0 -- -- 86
2019-10-19 18:00:00 20 3 Sur 12 Sudoeste 0 -- -- 80
2019-10-19 17:00:00 19.2 0 Calma 4 Norte 0 -- -- 90
2019-10-19 16:00:00 18.5 0 Calma 4 Nordeste 0.8 -- -- 89
2019-10-19 15:00:00 19.6 0 Calma 19 Sudoeste 0 -- -- 81
2019-10-19 14:00:00 23.3 7 Sur 19 Sudoeste 0 -- -- 55
2019-10-19 13:00:00 23.2 5 Sur 18 Sudoeste 0 -- -- 53
2019-10-19 12:00:00 22.8 5 Sur 13 Sur 0 -- -- 57
2019-10-19 11:00:00 20.5 3 Sur 6 Sur 0 -- -- 67
2019-10-19 10:00:00 17.8 3 Sur 6 Sudoeste 0 -- -- 76
2019-10-19 09:00:00 15.5 0 Calma 3 Noroeste 0 -- -- 87
2019-10-19 08:00:00 14.7 0 Calma 5 Norte 0 -- -- 92
2019-10-19 07:00:00 14.3 3 Norte 5 Norte 0 -- -- 92
2019-10-19 06:00:00 14.5 0 Calma 5 Noroeste 0 -- -- 91
2019-10-19 05:00:00 14.9 2 Norte 5 Norte 0 -- -- 90
2019-10-19 04:00:00 15.6 2 Norte 6 Sudeste 0 -- -- 87
2019-10-19 03:00:00 16.3 2 Norte 4 Norte 0 -- -- 87
2019-10-19 02:00:00 17 2 Norte 6 Noroeste 0 -- -- 84
2019-10-19 01:00:00 18.3 2 Sudoeste 11 Sur 0 -- -- 82
2019-10-19 00:00:00 18.5 0 Calma 10 Sur 0 -- -- 82
2019-10-18 23:00:00 18.8 0 Calma 13 Sudoeste 0 -- -- 80
2019-10-18 22:00:00 19.5 4 Sudoeste 19 Nordeste 0 -- -- 76
2019-10-18 21:00:00 20.2 6 Norte 25 Norte 0 -- -- 74
2019-10-18 20:00:00 21.6 7 Norte 19 Noroeste 0 -- -- 67
2019-10-18 19:00:00 23.3 5 Noroeste 21 Noroeste 0 -- -- 60
2019-10-18 18:00:00 24.6 4 Noroeste 20 Noroeste 0 -- -- 54
2019-10-18 17:00:00 25.4 8 Norte 22 Noroeste 0 -- -- 52
2019-10-18 16:00:00 26 6 Norte 21 Norte 0 -- -- 50
2019-10-18 15:00:00 26.9 7 Norte 25 Norte 0 -- -- 47
2019-10-18 14:00:00 26.8 6 Norte 23 Noroeste 0 -- -- 48
2019-10-18 13:00:00 25.5 7 Noroeste 21 Noroeste 0 -- -- 52
2019-10-18 12:00:00 24.8 5 Norte 16 Noroeste 0 -- -- 54
2019-10-18 11:00:00 22.3 6 Sur 18 Este 0 -- -- 55
2019-10-18 10:00:00 17.6 5 Sur 11 Sur 0 -- -- 64
2019-10-18 09:00:00 13.6 0 Calma 4 Noroeste 0 -- -- 76
2019-10-18 08:00:00 13.8 0 Calma 5 Noroeste 0 -- -- 80
2019-10-18 07:00:00 14 0 Calma 5 Sudoeste 0 -- -- 80
2019-10-18 06:00:00 14.2 0 Calma 4 Norte 0 -- -- 81
2019-10-18 05:00:00 14.3 0 Calma 3 Norte 0 -- -- 79
2019-10-18 04:00:00 14.9 2 Noroeste 4 Noroeste 0 -- -- 76
2019-10-18 03:00:00 15.6 2 Norte 6 Norte 0 -- -- 74
2019-10-18 02:00:00 15.5 0 Calma 4 Noroeste 0 -- -- 70
2019-10-18 01:00:00 15.9 2 Noroeste 4 Este 0 -- -- 68
2019-10-18 00:00:00 17 3 Sudeste 11 Nordeste 0 -- -- 62
2019-10-17 23:00:00 17.5 6 Norte 18 Norte 0 -- -- 64
2019-10-17 22:00:00 18 6 Norte 22 Norte 0 -- -- 61
2019-10-17 21:00:00 19.1 8 Norte 31 Norte 0 -- -- 55
2019-10-17 20:00:00 20.7 5 Norte 17 Noroeste 0 -- -- 44
2019-10-17 19:00:00 22.5 5 Norte 23 Noroeste 0 -- -- 30
2019-10-17 18:00:00 23.9 7 Norte 21 Norte 0 -- -- 27
2019-10-17 17:00:00 25.2 6 Norte 18 Norte 0 -- -- 25
2019-10-17 16:00:00 25.7 7 Norte 19 Norte 0 -- -- 24
2019-10-17 15:00:00 26.3 6 Norte 18 Norte 0 -- -- 24
2019-10-17 14:00:00 26.1 4 Norte 14 Norte 0 -- -- 23
2019-10-17 13:00:00 24.9 6 Sudoeste 14 Sudeste 0 -- -- 27
2019-10-17 12:00:00 22.6 5 Sur 15 Sudeste 0 -- -- 31
2019-10-17 11:00:00 18.9 5 Sur 13 Sudeste 0 -- -- 39
2019-10-17 10:00:00 13.9 3 Sudoeste 6 Sur 0 -- -- 52
2019-10-17 09:00:00 9.2 0 Calma 4 Norte 0 -- -- 68
2019-10-17 08:00:00 8.7 0 Calma 4 Norte 0 -- -- 68
2019-10-17 07:00:00 9 0 Calma 3 Norte 0 -- -- 66
2019-10-17 06:00:00 9.4 2 Norte 3 Norte 0 -- -- 65
2019-10-17 05:00:00 10 0 Calma 3 Noroeste 0 -- -- 63
2019-10-17 04:00:00 10.6 0 Calma 3 Norte 0 -- -- 62
2019-10-17 03:00:00 11 0 Calma 3 Noroeste 0 -- -- 60
2019-10-17 02:00:00 11.6 0 Calma 3 Norte 0 -- -- 58
2019-10-17 01:00:00 12.6 0 Calma 4 Norte 0 -- -- 58
2019-10-17 00:00:00 13.8 2 Norte 4 Norte 0 -- -- 58
2019-10-16 23:00:00 14.6 0 Calma 8 Norte 0 -- -- 56
2019-10-16 22:00:00 14.2 2 Noroeste 4 Norte 0 -- -- 54
2019-10-16 21:00:00 15.1 3 Norte 4 Norte 0 -- -- 48
2019-10-16 20:00:00 17.4 3 Norte 4 Noroeste 0 -- -- 43
2019-10-16 19:00:00 20.6 0 Calma 12 Sudoeste 0 -- -- 37
2019-10-16 18:00:00 22.6 4 Sudoeste 15 Sudoeste 0 -- -- 32
2019-10-16 17:00:00 23.3 5 Sur 16 Sur 0 -- -- 30
2019-10-16 16:00:00 23.4 7 Sur 17 Sur 0 -- -- 32
2019-10-16 15:00:00 24.1 5 Sur 16 Sur 0 -- -- 29
2019-10-16 14:00:00 23.4 6 Sur 16 Sur 0 -- -- 28
2019-10-16 13:00:00 22.9 5 Sur 14 Sur 0 -- -- 29
2019-10-16 12:00:00 20.3 3 Sudeste 6 Sur 0 -- -- 31
2019-10-16 11:00:00 15.6 3 Sur 7 Sur 0 -- -- 43
2019-10-16 10:00:00 11.6 2 Sur 7 Sudoeste 0 -- -- 54
2019-10-16 09:00:00 6.6 0 Calma 2 Norte 0 -- -- 70
2019-10-16 08:00:00 6.8 0 Calma 3 Norte 0 -- -- 68
2019-10-16 07:00:00 7.4 0 Calma 4 Norte 0 -- -- 66
2019-10-16 06:00:00 7.7 0 Calma 3 Norte 0 -- -- 64
2019-10-16 05:00:00 8.3 0 Calma 3 Norte 0 -- -- 62
2019-10-16 04:00:00 8.8 0 Calma 3 Norte 0 -- -- 61
2019-10-16 03:00:00 9.3 0 Calma 4 Norte 0 -- -- 59
2019-10-16 02:00:00 10.1 0 Calma 4 Noroeste 0 -- -- 57
2019-10-16 01:00:00 11.5 0 Calma 5 Norte 0 -- -- 54
2019-10-16 00:00:00 12.6 2 Noroeste 4 Oeste 0 -- -- 53
2019-10-15 23:00:00 12.9 3 Norte 4 Norte 0 -- -- 52
2019-10-15 22:00:00 14 2 Noroeste 11 Norte 0 -- -- 50
2019-10-15 21:00:00 15.3 2 Noroeste 8 Noroeste 0 -- -- 46
2019-10-15 20:00:00 17.1 4 Norte 10 Norte 0 -- -- 42
2019-10-15 19:00:00 19.6 2 Norte 12 Noroeste 0 -- -- 36
2019-10-15 18:00:00 20.8 4 Norte 15 Noroeste 0 -- -- 31
2019-10-15 17:00:00 21.6 4 Norte 15 Nordeste 0 -- -- 29
2019-10-15 16:00:00 21.9 4 Norte 15 Norte 0 -- -- 27
2019-10-15 15:00:00 21.7 4 Norte 17 Nordeste 0 -- -- 29
2019-10-15 14:00:00 22.5 4 Este 17 Sudeste 0 -- -- 28
2019-10-15 13:00:00 21.9 5 Este 15 Este 0 -- -- 32
2019-10-15 12:00:00 20 7 Sudeste 18 Sudeste 0 -- -- 39
2019-10-15 11:00:00 17.8 5 Este 13 Sudeste 0 -- -- 53
2019-10-15 10:00:00 14.6 5 Sudeste 13 Sudeste 0 -- -- 72
2019-10-15 09:00:00 10.1 0 Calma 4 Norte 0 -- -- 90
2019-10-15 08:00:00 10 2 Noroeste 6 Oeste 0 -- -- 90
2019-10-15 07:00:00 10.5 2 Norte 4 Nordeste 0 -- -- 88
2019-10-15 06:00:00 10.9 3 Norte 9 Noroeste 0 -- -- 90
2019-10-15 05:00:00 11.7 3 Norte 5 Norte 0 -- -- 91
2019-10-15 04:00:00 13 2 Noroeste 8 Norte 0 -- -- 90
2019-10-15 03:00:00 13.6 0 Calma 10 Noroeste 0 -- -- 91
2019-10-15 02:00:00 13.6 3 Norte 8 Nordeste 0 -- -- 93
2019-10-15 01:00:00 14 2 Norte 4 Norte 0 -- -- 92
2019-10-15 00:00:00 15.2 0 Calma 4 Norte 0 -- -- 91
2019-10-14 23:00:00 15.4 2 Norte 3 Norte 0.4 -- -- 90
2019-10-14 22:00:00 16.9 0 Calma 5 Sudeste 0.2 -- -- 81
2019-10-14 21:00:00 17 0 Calma 3 Norte 0 -- -- 71
2019-10-14 20:00:00 17.4 0 Calma 9 Sudoeste 0 -- -- 65
2019-10-14 19:00:00 18.9 4 Sudoeste 16 Sur 0 -- -- 56
2019-10-14 18:00:00 20.3 6 Sur 22 Sudoeste 0 -- -- 54
2019-10-14 17:00:00 22.3 6 Sur 20 Sur 0 -- -- 55
2019-10-14 16:00:00 22.1 6 Sudeste 15 Sudeste 0 -- -- 61
2019-10-14 15:00:00 21.5 4 Sur 15 Sur 0 -- -- 63
2019-10-14 14:00:00 20.9 3 Sur 17 Sur 0 -- -- 66
2019-10-14 13:00:00 20.7 2 Este 14 Sudeste 0 -- -- 64
2019-10-14 12:00:00 19.5 3 Sur 8 Nordeste 0 -- -- 73
2019-10-14 11:00:00 19 2 Sudeste 8 Sudoeste 0 -- -- 78
2019-10-14 10:00:00 18.1 2 Sur 6 Sudoeste 0 -- -- 90
2019-10-14 09:00:00 17.2 2 Noroeste 7 Noroeste 0.6 -- -- 94
2019-10-14 08:00:00 16.7 3 Norte 4 Norte 0 -- -- 90
2019-10-14 07:00:00 18.3 0 Calma 3 Norte 0 -- -- 91
2019-10-14 06:00:00 18.5 0 Calma 9 Sudeste 0 -- -- 93
2019-10-14 05:00:00 18.5 3 Sudeste 10 Oeste 0 -- -- 93
2019-10-14 04:00:00 18 0 Calma 2 Sudeste 0 -- -- 91
2019-10-14 03:00:00 17.7 2 Norte 3 Norte 0 -- -- 89
2019-10-14 02:00:00 18.4 0 Calma 2 Norte 0 -- -- 88
2019-10-14 01:00:00 19 0 Calma 3 Oeste 0 -- -- 88
2019-10-14 00:00:00 18.8 0 Calma 4 Oeste 0 -- -- 91